Time;durP1;ratioP1;P1;durP2;ratioP2;P2;SDS_P1;SDS_P2;PMS_P1;PMS_P2;Temp;Humidity;BMP_temperature;BMP_pressure;BME280_temperature;BME280_humidity;BME280_pressure;Samples;Min_cycle;Max_cycle;Signal;HPM_P1;HPM_P2
2022/01/07 00:04:51;;;;;;;16.90;6.20;;;;;;;-0.53;60.04;99509.73;219713;1282;139363;-59
2022/01/07 00:09:54;;;;;;;11.10;5.50;;;;;;;-0.53;59.97;99519.84;219813;1282;140628;-61
2022/01/07 00:14:57;;;;;;;13.40;6.00;;;;;;;-0.59;59.73;99521.98;219901;1282;141853;-60
2022/01/07 00:20:01;;;;;;;12.90;5.30;;;;;;;-0.64;59.76;99528.66;219663;1282;139442;-60
2022/01/07 00:25:05;;;;;;;13.60;6.50;;;;;;;-0.70;59.85;99536.54;219802;1283;139677;-61
2022/01/07 00:30:12;;;;;;;14.00;5.80;;;;;;;-0.74;59.90;99543.90;219670;1282;139874;-61
2022/01/07 00:35:17;;;;;;;14.10;6.40;;;;;;;-0.76;60.04;99542.34;219662;1282;139005;-58
2022/01/07 00:40:23;;;;;;;13.50;6.20;;;;;;;-0.78;59.89;99546.02;219810;1282;139670;-58
2022/01/07 00:45:27;;;;;;;16.30;7.00;;;;;;;-0.81;60.02;99553.18;219833;1283;139544;-60
2022/01/07 00:50:31;;;;;;;16.10;7.40;;;;;;;-0.83;59.95;99559.47;219798;1282;139386;-60
2022/01/07 00:55:36;;;;;;;16.80;7.00;;;;;;;-0.84;60.11;99563.66;219716;1281;140670;-60
2022/01/07 01:00:39;;;;;;;;;;;;;;;-0.86;60.25;99568.55;219888;1281;139399;-59
2022/01/07 01:05:44;;;;;;;16.10;7.30;;;;;;;-0.94;60.17;99575.92;219883;1282;125254;-61
2022/01/07 01:10:47;;;;;;;14.70;6.40;;;;;;;-0.98;60.27;99577.16;219913;1281;139545;-60
2022/01/07 01:15:50;;;;;;;21.10;7.90;;;;;;;-0.99;60.34;99577.70;219755;1281;139357;-61
2022/01/07 01:20:53;;;;;;;16.10;7.30;;;;;;;-1.03;60.36;99577.20;219997;1281;140469;-59
2022/01/07 01:25:56;;;;;;;17.80;7.20;;;;;;;-1.04;60.38;99578.25;219754;1282;140894;-59
2022/01/07 01:30:59;;;;;;;22.60;8.30;;;;;;;-1.05;60.50;99575.83;219866;1282;138990;-59
2022/01/07 01:36:02;;;;;;;15.60;7.10;;;;;;;-1.07;60.55;99573.40;219873;1280;140706;-59
2022/01/07 01:41:07;;;;;;;18.80;8.40;;;;;;;-1.06;60.57;99578.79;219902;1282;139690;-60
2022/01/07 01:46:10;;;;;;;17.90;8.00;;;;;;;-1.03;60.79;99571.63;219820;1282;139280;-59
2022/01/07 01:51:14;;;;;;;17.60;7.50;;;;;;;-0.96;60.67;99574.54;219918;1282;139907;-58
2022/01/07 01:56:17;;;;;;;17.10;7.80;;;;;;;-0.91;60.62;99570.33;219239;1284;141882;-57
2022/01/07 02:01:20;;;;;;;18.90;7.70;;;;;;;-0.87;60.58;99569.08;219711;1282;139676;-56
2022/01/07 02:06:24;;;;;;;17.10;7.10;;;;;;;-0.83;60.49;99563.81;219812;1282;139696;-58
2022/01/07 02:11:27;;;;;;;19.30;8.20;;;;;;;-0.83;60.39;99553.36;219809;1282;139581;-58
2022/01/07 02:16:30;;;;;;;17.90;8.10;;;;;;;-0.83;60.53;99554.77;219787;1283;140093;-58
2022/01/07 02:21:37;;;;;;;20.20;8.70;;;;;;;-0.82;60.43;99549.35;219845;1283;139406;-59
2022/01/07 02:26:40;;;;;;;21.70;8.50;;;;;;;-0.79;60.40;99545.66;219770;1282;139140;-59
2022/01/07 02:31:44;;;;;;;21.00;8.60;;;;;;;-0.76;60.54;99545.30;219923;1282;139346;-60
2022/01/07 02:36:47;;;;;;;20.00;8.80;;;;;;;-0.73;60.41;99543.17;219905;1281;139481;-58
2022/01/07 02:41:50;;;;;;;17.30;8.70;;;;;;;-0.75;60.34;99540.59;219720;1282;139555;-58
2022/01/07 02:46:53;;;;;;;21.00;9.60;;;;;;;-0.78;60.39;99540.96;219777;1284;140144;-58
2022/01/07 02:51:55;;;;;;;18.50;9.30;;;;;;;-0.76;60.49;99539.20;219767;1283;139370;-59
2022/01/07 02:56:58;;;;;;;18.30;9.10;;;;;;;-0.78;60.26;99536.79;219925;1282;139303;-60
2022/01/07 03:02:02;;;;;;;22.30;9.30;;;;;;;-0.87;60.25;99546.95;219761;1282;139987;-60
2022/01/07 03:07:07;;;;;;;20.70;8.70;;;;;;;-0.98;60.26;99549.99;219861;1282;139988;-60
2022/01/07 03:12:10;;;;;;;18.60;9.00;;;;;;;-1.06;60.42;99558.07;219804;1282;139646;-60
2022/01/07 03:17:13;;;;;;;18.50;9.50;;;;;;;-1.11;60.43;99555.50;219954;1282;139503;-59
2022/01/07 03:22:16;;;;;;;22.50;9.60;;;;;;;-1.17;60.59;99555.17;219899;1282;139940;-57
2022/01/07 03:27:19;;;;;;;20.00;9.00;;;;;;;-1.22;60.58;99548.77;219806;1284;140032;-60
2022/01/07 03:32:24;;;;;;;18.90;9.00;;;;;;;-1.30;60.58;99550.38;219740;1284;140356;-59
2022/01/07 03:37:27;;;;;;;20.90;9.90;;;;;;;-1.32;60.75;99552.31;219587;1282;139643;-60
2022/01/07 03:42:30;;;;;;;19.70;9.20;;;;;;;-1.35;60.87;99554.24;219670;1282;139818;-59
2022/01/07 03:47:33;;;;;;;20.40;9.50;;;;;;;-1.38;60.91;99561.05;219744;1282;139776;-58
2022/01/07 03:52:36;;;;;;;23.50;9.70;;;;;;;-1.45;60.95;99564.39;219723;1282;139923;-56
2022/01/07 03:57:40;;;;;;;23.80;9.40;;;;;;;-1.52;60.95;99561.64;219844;1282;139073;-58
2022/01/07 04:02:44;;;;;;;20.40;8.90;;;;;;;-1.58;61.07;99560.45;219844;1282;140568;-61
2022/01/07 04:07:48;;;;;;;22.00;9.40;;;;;;;-1.61;61.20;99558.21;219610;1282;139360;-58
2022/01/07 04:12:51;;;;;;;25.50;9.40;;;;;;;-1.58;61.15;99558.02;219595;1284;142395;-59
2022/01/07 04:17:55;;;;;;;23.70;9.90;;;;;;;-1.56;61.35;99554.18;219620;1282;238439;-59
2022/01/07 04:22:59;;;;;;;24.10;10.80;;;;;;;-1.53;61.37;99549.29;219858;1281;139433;-60
2022/01/07 04:28:07;;;;;;;26.50;11.30;;;;;;;-1.52;61.40;99542.33;219776;1282;141878;-56
2022/01/07 04:33:14;;;;;;;23.90;11.20;;;;;;;-1.55;61.07;99541.81;219830;1282;140887;-57
2022/01/07 04:38:17;;;;;;;28.60;13.00;;;;;;;-1.67;60.96;99545.88;219734;1284;139144;-57
2022/01/07 04:43:20;;;;;;;28.50;12.70;;;;;;;-1.79;61.17;99543.48;219717;1283;139814;-58
2022/01/07 04:48:23;;;;;;;26.00;11.40;;;;;;;-1.83;61.45;99549.26;219854;1282;139355;-57
2022/01/07 04:53:26;;;;;;;25.80;11.10;;;;;;;-1.77;61.51;99558.10;219852;1282;139965;-59
2022/01/07 04:58:29;;;;;;;25.50;11.40;;;;;;;-1.67;61.48;99555.96;219850;1282;140006;-61
2022/01/07 05:03:32;;;;;;;26.80;12.50;;;;;;;-1.64;61.40;99554.58;220051;1282;139699;-58
2022/01/07 05:08:35;;;;;;;28.00;13.00;;;;;;;-1.64;61.46;99551.77;219977;1281;139602;-58
2022/01/07 05:13:38;;;;;;;30.10;12.20;;;;;;;-1.65;61.58;99564.48;219817;1282;139706;-58
2022/01/07 05:18:41;;;;;;;32.10;14.40;;;;;;;-1.82;61.16;99572.71;219696;1282;140354;-54
2022/01/07 05:23:44;;;;;;;28.50;13.80;;;;;;;-2.01;61.39;99583.91;219672;1282;139627;-57
2022/01/07 05:28:50;;;;;;;26.60;12.70;;;;;;;-2.12;61.53;99578.90;219627;1282;140087;-57
2022/01/07 05:33:54;;;;;;;28.00;12.50;;;;;;;-2.30;61.52;99574.58;219761;1284;139684;-57
2022/01/07 05:38:57;;;;;;;29.40;12.00;;;;;;;-2.41;61.77;99577.21;219894;1282;140126;-59
2022/01/07 05:44:00;;;;;;;27.10;12.00;;;;;;;-2.33;62.28;99571.45;219762;1282;139484;-59
2022/01/07 05:49:03;;;;;;;26.10;11.60;;;;;;;-2.22;62.36;99564.84;219928;1282;139419;-59
2022/01/07 05:54:06;;;;;;;28.80;14.00;;;;;;;-2.09;62.41;99567.93;219871;1282;139383;-59
2022/01/07 05:59:09;;;;;;;29.80;12.60;;;;;;;-2.00;62.47;99568.42;219761;1282;139985;-61
2022/01/07 06:04:12;;;;;;;25.50;12.00;;;;;;;-1.99;62.35;99567.73;219660;1283;139572;-62
2022/01/07 06:09:15;;;;;;;23.40;10.90;;;;;;;-2.04;62.11;99570.35;220024;1282;139589;-61
2022/01/07 06:14:18;;;;;;;19.80;9.20;;;;;;;-2.19;61.81;99566.56;219719;1282;140157;-61
2022/01/07 06:19:21;;;;;;;28.40;10.10;;;;;;;-2.31;61.79;99560.85;219728;1282;139139;-62
2022/01/07 06:24:24;;;;;;;31.60;10.70;;;;;;;-2.37;61.97;99558.79;219841;1282;139979;-58
2022/01/07 06:29:27;;;;;;;30.50;11.20;;;;;;;-2.36;62.09;99555.66;219821;1282;140988;-59
2022/01/07 06:34:30;;;;;;;21.60;9.30;;;;;;;-2.38;62.18;99556.52;219622;1283;139356;-58
2022/01/07 06:39:34;;;;;;;18.10;8.40;;;;;;;-2.34;62.32;99553.91;219924;1282;138813;-60
2022/01/07 06:44:38;;;;;;;26.70;10.40;;;;;;;-2.24;62.47;99554.92;219735;1283;139118;-58
2022/01/07 06:49:41;;;;;;;27.10;9.80;;;;;;;-2.13;62.50;99549.01;219809;1282;140301;-62
2022/01/07 06:54:44;;;;;;;17.90;9.00;;;;;;;-2.05;62.29;99547.42;219843;1282;139606;-61
2022/01/07 06:59:47;;;;;;;28.80;14.80;;;;;;;-1.92;62.76;99544.06;220022;1281;140385;-60
2022/01/07 07:04:50;;;;;;;21.70;9.70;;;;;;;-1.66;62.63;99535.79;219784;1282;139379;-60
2022/01/07 07:09:53;;;;;;;18.00;7.80;;;;;;;-1.60;61.97;99536.11;219704;1283;139707;-62
2022/01/07 07:14:56;;;;;;;39.40;20.40;;;;;;;-1.53;62.13;99530.85;219776;1284;141410;-59
2022/01/07 07:20:00;;;;;;;24.80;9.40;;;;;;;-1.29;62.80;99529.48;219700;1283;140815;-60
2022/01/07 07:25:04;;;;;;;16.10;7.20;;;;;;;-1.02;62.04;99522.52;219765;1283;139614;-60
2022/01/07 07:30:09;;;;;;;18.30;8.20;;;;;;;-1.06;61.34;99526.04;219963;1281;140028;-60
2022/01/07 07:40:19;;;;;;;21.80;8.70;;;;;;;-1.19;60.86;99535.00;219516;1282;138751;-59
2022/01/07 07:45:22;;;;;;;16.80;8.20;;;;;;;-1.31;60.74;99539.42;219811;1283;139472;-60
2022/01/07 07:50:24;;;;;;;24.60;11.10;;;;;;;-1.34;60.84;99542.75;219774;1284;140527;-60
2022/01/07 07:55:27;;;;;;;24.90;10.30;;;;;;;-1.21;61.45;99544.23;219930;1283;141952;-60
2022/01/07 08:00:31;;;;;;;26.00;9.50;;;;;;;-1.14;60.82;99543.68;219879;1283;139979;-60
2022/01/07 08:05:35;;;;;;;18.90;8.50;;;;;;;-1.25;60.50;99539.21;219636;1284;140122;-58
2022/01/07 08:10:45;;;;;;;21.40;8.00;;;;;;;-1.27;60.39;99545.66;219666;1283;139747;-61
2022/01/07 08:16:01;;;;;;;16.40;7.60;;;;;;;-1.27;60.28;99551.92;220045;1281;140561;-62
2022/01/07 08:21:09;;;;;;;20.70;7.50;;;;;;;-1.25;60.25;99552.80;220076;1281;140927;-62
2022/01/07 08:26:15;;;;;;;19.00;7.60;;;;;;;-1.23;60.04;99553.83;219643;1284;139925;-62
2022/01/07 08:36:24;;;;;;;15.80;6.90;;;;;;;-1.00;60.28;99536.42;219597;1283;231476;-59
2022/01/07 08:41:30;;;;;;;25.00;10.10;;;;;;;-0.82;60.58;99529.50;219670;1283;140863;-61
2022/01/07 08:46:34;;;;;;;17.70;8.60;;;;;;;-0.62;60.16;99519.23;219666;1283;139140;-61
2022/01/07 08:51:37;;;;;;;17.40;8.10;;;;;;;-0.52;59.57;99527.66;219996;1281;139534;-60
2022/01/07 08:56:40;;;;;;;19.10;7.90;;;;;;;-0.47;59.22;99529.89;219821;1280;140548;-61
2022/01/07 09:01:43;;;;;;;16.80;7.90;;;;;;;-0.42;58.94;99541.17;219944;1281;140378;-61
2022/01/07 09:06:46;;;;;;;19.20;8.10;;;;;;;-0.48;58.71;99540.18;219838;1282;139024;-60
2022/01/07 09:11:49;;;;;;;19.90;8.90;;;;;;;-0.45;58.93;99537.54;219800;1281;140248;-60
2022/01/07 09:16:52;;;;;;;18.50;7.20;;;;;;;-0.34;58.74;99530.80;219901;1283;138885;-60
2022/01/07 09:21:56;;;;;;;154.70;77.30;;;;;;;-0.24;58.82;99521.81;219779;1282;139692;-61
2022/01/07 09:26:59;;;;;;;19.60;8.50;;;;;;;0.00;58.87;99525.36;219804;1283;140201;-60
2022/01/07 09:32:03;;;;;;;15.40;7.30;;;;;;;0.14;58.18;99519.11;219979;1281;139425;-60
2022/01/07 09:37:06;;;;;;;13.80;6.00;;;;;;;0.21;57.82;99517.27;219722;1282;138688;-57
2022/01/07 09:42:09;;;;;;;12.60;5.70;;;;;;;0.37;57.86;99514.63;219732;1282;138845;-59
2022/01/07 09:47:13;;;;;;;15.20;7.10;;;;;;;0.55;57.86;99508.27;219824;1283;139090;-60
2022/01/07 09:52:16;;;;;;;11.70;5.90;;;;;;;0.80;57.29;99507.73;219749;1282;138915;-59
2022/01/07 09:57:19;;;;;;;267.00;129.40;;;;;;;0.95;57.13;99504.71;219803;1282;139125;-59
2022/01/07 10:02:23;;;;;;;18.70;9.60;;;;;;;1.22;57.08;99495.20;219665;1282;138911;-58
2022/01/07 10:07:27;;;;;;;14.10;6.00;;;;;;;1.37;56.39;99487.26;219751;1282;139138;-60
2022/01/07 10:12:33;;;;;;;10.60;5.70;;;;;;;1.49;55.96;99483.70;219940;1282;139817;-60
2022/01/07 10:17:39;;;;;;;10.10;5.10;;;;;;;1.63;55.74;99476.11;219808;1282;138911;-59
2022/01/07 10:22:51;;;;;;;11.80;5.50;;;;;;;1.78;55.44;99474.59;219782;1282;139307;-57
2022/01/07 10:28:03;;;;;;;11.70;5.60;;;;;;;1.95;55.21;99469.02;219823;1281;139200;-60
2022/01/07 10:33:17;;;;;;;12.10;5.60;;;;;;;2.15;55.21;99463.88;219930;1282;138811;-61
2022/01/07 10:38:29;;;;;;;11.60;5.30;;;;;;;2.37;54.78;99457.63;219801;1282;138962;-61
2022/01/07 10:43:34;;;;;;;10.10;5.00;;;;;;;2.56;54.28;99444.59;219778;1281;139541;-59
2022/01/07 10:48:49;;;;;;;12.10;5.30;;;;;;;2.74;53.76;99443.14;219860;1282;139649;-59
2022/01/07 10:54:05;;;;;;;13.60;5.50;;;;;;;2.90;53.72;99441.66;219681;1282;139626;-60
2022/01/07 10:59:11;;;;;;;9.40;5.10;;;;;;;3.06;53.43;99437.77;219729;1282;140237;-60
2022/01/07 11:04:22;;;;;;;10.80;5.60;;;;;;;3.05;52.74;99427.80;219646;1282;138873;-61
2022/01/07 11:09:25;;;;;;;20.50;10.10;;;;;;;3.04;52.88;99417.86;219494;1282;139298;-58
2022/01/07 11:14:35;;;;;;;12.90;6.50;;;;;;;3.05;52.26;99409.23;219496;1282;139787;-61
2022/01/07 11:19:42;;;;;;;15.30;5.70;;;;;;;3.03;52.16;99408.23;219701;1282;138965;-61
2022/01/07 11:25:11;;;;;;;14.10;6.00;;;;;;;3.04;51.99;99404.18;219635;1281;138953;-60
2022/01/07 11:30:19;;;;;;;15.90;6.40;;;;;;;3.08;52.09;99400.20;219578;1283;139358;-62
2022/01/07 11:35:23;;;;;;;14.90;5.70;;;;;;;3.13;51.80;99389.40;219794;1282;138938;-61
2022/01/07 11:40:29;;;;;;;12.20;4.80;;;;;;;3.20;51.63;99387.48;219693;1282;139324;-59
2022/01/07 11:45:34;;;;;;;;;;;;;;;3.31;51.44;99378.22;219939;1282;139070;-61
2022/01/07 11:50:55;;;;;;;15.60;5.30;;;;;;;3.35;50.99;99373.21;219877;1281;125765;-60
2022/01/07 11:56:01;;;;;;;11.90;4.80;;;;;;;3.40;50.85;99367.99;219773;1282;139353;-61
2022/01/07 12:01:04;;;;;;;14.90;4.30;;;;;;;3.42;50.28;99358.80;219682;1283;139485;-61
2022/01/07 12:06:25;;;;;;;11.10;3.90;;;;;;;3.48;50.03;99353.35;219475;1284;139469;-61
2022/01/07 12:11:36;;;;;;;12.70;4.10;;;;;;;3.58;49.65;99344.68;219565;1282;139499;-61
2022/01/07 12:16:43;;;;;;;14.10;4.30;;;;;;;3.66;49.22;99342.15;219682;1282;139189;-59
2022/01/07 12:21:52;;;;;;;11.50;4.60;;;;;;;3.71;48.73;99338.15;219869;1282;139084;-61
2022/01/07 12:27:20;;;;;;;14.10;3.90;;;;;;;3.78;48.79;99334.44;219656;1282;138968;-61
2022/01/07 12:32:33;;;;;;;10.50;4.20;;;;;;;3.87;48.15;99329.61;219689;1283;138723;-62
2022/01/07 12:37:37;;;;;;;10.10;4.30;;;;;;;3.91;47.87;99327.74;219706;1281;139683;-61
2022/01/07 12:42:44;;;;;;;13.00;4.40;;;;;;;3.90;47.67;99330.39;219667;1282;139815;-62
2022/01/07 12:47:51;;;;;;;12.80;5.10;;;;;;;3.99;47.45;99332.90;219718;1282;140013;-60
2022/01/07 12:52:54;;;;;;;13.00;4.20;;;;;;;4.09;47.08;99334.92;219680;1283;139357;-60
2022/01/07 12:58:02;;;;;;;15.20;6.20;;;;;;;4.13;47.00;99330.04;219736;1282;138947;-60
2022/01/07 13:03:08;;;;;;;19.00;5.00;;;;;;;4.13;47.53;99327.38;219603;1282;139294;-59
2022/01/07 13:08:18;;;;;;;25.10;11.40;;;;;;;4.12;47.55;99322.52;219626;1283;139472;-61
2022/01/07 13:13:26;;;;;;;45.40;7.40;;;;;;;4.12;47.34;99321.64;219661;1282;139711;-60
2022/01/07 13:18:43;;;;;;;35.00;5.90;;;;;;;4.06;47.52;99322.89;219775;1282;139440;-60
2022/01/07 13:23:52;;;;;;;30.30;5.90;;;;;;;3.94;47.17;99321.49;219741;1282;139204;-57
2022/01/07 13:29:13;;;;;;;19.10;5.10;;;;;;;3.81;47.56;99326.26;219658;1284;139919;-61
2022/01/07 13:34:23;;;;;;;30.40;5.80;;;;;;;3.76;47.06;99325.02;219698;1283;138950;-61
2022/01/07 13:39:27;;;;;;;35.10;5.60;;;;;;;3.66;47.40;99320.77;219798;1282;138715;-60
2022/01/07 13:44:32;;;;;;;35.40;6.20;;;;;;;3.55;47.41;99312.84;219779;1282;139186;-61
2022/01/07 13:49:34;;;;;;;46.10;7.10;;;;;;;3.41;47.83;99311.65;219733;1282;139862;-58
2022/01/07 13:54:40;;;;;;;253.40;135.40;;;;;;;3.26;48.50;99308.73;219688;1282;138928;-61
2022/01/07 13:59:50;;;;;;;39.30;10.30;;;;;;;3.24;48.91;99306.35;219365;1284;139965;-61
2022/01/07 14:04:55;;;;;;;32.00;6.90;;;;;;;3.20;48.61;99312.43;219892;1281;138864;-61
2022/01/07 14:10:13;;;;;;;57.90;7.40;;;;;;;3.12;48.99;99310.55;219943;1282;139389;-59
2022/01/07 14:15:19;;;;;;;43.30;7.30;;;;;;;3.03;49.21;99305.87;219845;1282;139781;-61
2022/01/07 14:20:22;;;;;;;42.80;7.60;;;;;;;2.97;49.10;99297.62;219853;1282;139761;-60
2022/01/07 14:25:25;;;;;;;40.20;7.60;;;;;;;2.90;49.34;99291.52;219930;1280;138777;-60
2022/01/07 14:30:28;;;;;;;43.40;7.40;;;;;;;2.80;49.99;99285.46;219917;1282;138705;-61
2022/01/07 14:35:31;;;;;;;47.60;7.40;;;;;;;2.71;50.02;99283.09;219760;1282;141391;-60
2022/01/07 14:40:37;;;;;;;34.50;7.60;;;;;;;2.63;50.15;99283.81;219688;1282;139620;-62
2022/01/07 14:45:40;;;;;;;56.60;8.80;;;;;;;2.56;50.15;99282.07;219946;1282;139232;-62
2022/01/07 14:50:43;;;;;;;64.20;8.80;;;;;;;2.48;50.63;99276.64;219841;1282;139378;-62
2022/01/07 14:55:46;;;;;;;60.90;8.90;;;;;;;2.40;50.33;99279.31;219781;1281;138569;-62
2022/01/07 15:00:49;;;;;;;53.50;8.30;;;;;;;2.32;50.35;99277.76;219704;1282;138699;-60
2022/01/07 15:05:53;;;;;;;34.30;8.40;;;;;;;2.25;50.71;99274.96;219603;1284;140257;-64
2022/01/07 15:10:56;;;;;;;40.50;8.90;;;;;;;2.19;50.62;99280.17;219845;1282;139124;-63
2022/01/07 15:21:05;;;;;;;62.50;10.10;;;;;;;2.13;50.56;99284.70;219892;1282;138944;-63
2022/01/07 15:26:08;;;;;;;59.40;10.00;;;;;;;2.10;50.68;99280.21;219790;1282;139132;-61
2022/01/07 15:31:11;;;;;;;34.80;10.80;;;;;;;2.07;50.88;99275.58;219821;1282;139400;-59
2022/01/07 15:36:14;;;;;;;123.50;52.30;;;;;;;2.12;50.88;99280.36;219273;1282;140497;-59
2022/01/07 15:41:18;;;;;;;51.80;12.30;;;;;;;2.22;50.94;99273.11;219699;1282;139451;-60
2022/01/07 15:46:21;;;;;;;40.80;9.90;;;;;;;2.21;50.55;99264.89;219696;1283;139365;-61
2022/01/07 15:51:25;;;;;;;36.10;9.80;;;;;;;2.15;50.59;99267.52;219764;1282;139129;-59
2022/01/07 15:56:28;;;;;;;32.10;9.90;;;;;;;2.09;50.69;99268.18;219748;1282;139675;-62
2022/01/07 16:01:31;;;;;;;30.20;9.70;;;;;;;2.03;50.71;99262.73;219436;1284;139301;-60
2022/01/07 16:06:34;;;;;;;38.00;10.80;;;;;;;1.97;50.83;99262.33;219788;1282;139392;-57
2022/01/07 16:11:38;;;;;;;39.30;10.80;;;;;;;1.92;50.87;99260.17;219748;1284;139392;-60
2022/01/07 16:16:41;;;;;;;38.30;10.40;;;;;;;1.85;51.23;99258.42;219711;1284;139278;-61
2022/01/07 16:21:44;;;;;;;37.80;10.40;;;;;;;1.78;51.35;99251.95;219638;1282;165240;-58
2022/01/07 16:26:47;;;;;;;36.30;10.80;;;;;;;1.66;51.56;99245.04;219689;1282;142197;-59
2022/01/07 16:31:50;;;;;;;34.00;11.00;;;;;;;1.54;51.84;99244.80;219781;1282;139560;-61
2022/01/07 16:36:54;;;;;;;41.50;10.90;;;;;;;1.42;52.20;99239.27;219746;1282;138655;-58
2022/01/07 16:41:57;;;;;;;45.40;12.70;;;;;;;1.35;52.39;99229.48;219537;1282;139503;-60
2022/01/07 16:47:02;;;;;;;56.10;14.90;;;;;;;1.25;52.34;99222.16;219726;1282;139323;-61
2022/01/07 16:52:06;;;;;;;49.60;15.50;;;;;;;1.18;52.54;99217.25;219779;1282;139444;-60
2022/01/07 16:57:09;;;;;;;44.10;18.50;;;;;;;1.05;52.30;99220.48;219786;1282;139161;-59
2022/01/07 17:02:12;;;;;;;48.40;18.20;;;;;;;0.92;52.22;99219.19;219685;1282;139118;-58
2022/01/07 17:07:15;;;;;;;51.70;20.00;;;;;;;0.87;52.54;99216.84;219720;1282;139917;-60
2022/01/07 17:12:19;;;;;;;54.90;19.30;;;;;;;0.85;52.68;99213.38;219662;1282;139083;-59
2022/01/07 17:17:22;;;;;;;47.60;19.40;;;;;;;0.86;52.95;99212.66;219714;1282;139212;-60
2022/01/07 17:22:25;;;;;;;47.10;19.00;;;;;;;0.87;53.22;99208.27;219713;1282;138808;-60
2022/01/07 17:27:29;;;;;;;40.90;18.00;;;;;;;0.84;52.98;99204.67;219785;1283;139325;-58
2022/01/07 17:32:32;;;;;;;50.30;22.60;;;;;;;0.83;53.42;99203.47;219683;1282;138738;-59
2022/01/07 17:37:35;;;;;;;37.70;16.30;;;;;;;0.84;53.27;99203.10;219816;1282;139740;-57
2022/01/07 17:42:38;;;;;;;35.00;16.20;;;;;;;0.78;53.31;99199.39;219719;1282;139452;-60
2022/01/07 17:47:41;;;;;;;40.40;17.90;;;;;;;0.71;53.30;99199.86;219766;1282;141381;-61
2022/01/07 17:52:44;;;;;;;40.50;17.00;;;;;;;0.65;53.26;99205.39;219717;1283;138864;-61
2022/01/07 17:57:47;;;;;;;38.00;17.70;;;;;;;0.55;53.08;99209.27;219902;1282;139308;-61
2022/01/07 18:02:50;;;;;;;47.10;18.80;;;;;;;0.47;53.39;99214.48;219632;1282;140546;-61
2022/01/07 18:07:55;;;;;;;42.80;18.60;;;;;;;0.39;53.62;99215.14;219694;1284;139172;-60
2022/01/07 18:12:58;;;;;;;37.70;18.30;;;;;;;0.33;53.86;99213.15;219678;1282;139687;-61
2022/01/07 18:18:02;;;;;;;44.90;20.00;;;;;;;0.30;54.13;99220.36;219821;1282;140299;-61
2022/01/07 18:23:05;;;;;;;46.90;20.40;;;;;;;0.31;54.48;99214.23;219802;1281;139335;-61
2022/01/07 18:28:10;;;;;;;44.60;18.90;;;;;;;0.25;54.41;99210.67;219900;1282;139127;-61
2022/01/07 18:33:13;;;;;;;46.00;21.00;;;;;;;0.17;54.60;99210.98;219690;1282;139217;-61
2022/01/07 18:38:17;;;;;;;47.60;20.90;;;;;;;0.12;54.58;99215.07;219891;1282;139192;-59
2022/01/07 18:43:20;;;;;;;49.80;21.50;;;;;;;0.10;54.65;99216.35;219516;1284;139944;-61
2022/01/07 18:48:23;;;;;;;52.60;22.00;;;;;;;0.09;55.00;99215.84;219720;1282;140364;-60
2022/01/07 18:53:26;;;;;;;299.20;140.10;;;;;;;0.07;55.04;99211.87;219812;1282;139158;-59
2022/01/07 18:58:29;;;;;;;55.90;26.20;;;;;;;0.10;55.35;99207.61;219504;1283;139821;-61
2022/01/07 19:03:32;;;;;;;65.10;28.90;;;;;;;0.05;55.06;99200.38;219922;1282;138628;-60
2022/01/07 19:08:36;;;;;;;57.80;25.60;;;;;;;-0.06;55.11;99207.19;219754;1282;139141;-61
2022/01/07 19:13:40;;;;;;;56.40;27.40;;;;;;;-0.18;55.27;99204.23;219680;1282;140915;-60
2022/01/07 19:18:44;;;;;;;61.60;28.00;;;;;;;-0.25;55.26;99204.35;219574;1285;139078;-60
2022/01/07 19:23:48;;;;;;;58.10;26.10;;;;;;;-0.29;55.35;99198.67;219692;1282;139666;-61
2022/01/07 19:28:51;;;;;;;56.00;25.90;;;;;;;-0.27;55.68;99192.54;219764;1282;139982;-61
2022/01/07 19:33:54;;;;;;;57.60;26.60;;;;;;;-0.27;55.63;99187.30;220005;1282;140490;-59
2022/01/07 19:38:57;;;;;;;54.10;26.00;;;;;;;-0.27;55.73;99182.77;219901;1282;138985;-60
2022/01/07 19:44:00;;;;;;;58.10;26.90;;;;;;;0.65;61.98;99172.05;219716;1282;138948;-60
2022/01/07 19:49:03;;;;;;;67.10;27.10;;;;;;;2.12;58.50;99157.86;219772;1282;140202;-60
2022/01/07 19:54:06;;;;;;;59.40;28.40;;;;;;;1.72;55.47;99153.08;219703;1282;140892;-61
2022/01/07 19:59:09;;;;;;;68.60;31.80;;;;;;;1.21;54.96;99160.73;219675;1284;139823;-60
2022/01/07 20:04:12;;;;;;;68.20;32.80;;;;;;;0.80;54.87;99172.27;219820;1282;140559;-60
2022/01/07 20:09:15;;;;;;;105.80;54.10;;;;;;;0.48;55.10;99175.00;219883;1281;139292;-61
2022/01/07 20:14:18;;;;;;;69.40;33.50;;;;;;;0.37;55.73;99168.23;219664;1282;141065;-62
2022/01/07 20:19:22;;;;;;;74.90;34.20;;;;;;;0.22;55.39;99167.98;219602;1284;139086;-62
2022/01/07 20:24:25;;;;;;;69.70;33.60;;;;;;;-0.02;55.42;99171.18;219669;1281;139601;-61
2022/01/07 20:29:28;;;;;;;64.10;30.20;;;;;;;-0.22;55.77;99171.89;219777;1282;139310;-60
2022/01/07 20:34:31;;;;;;;64.30;32.00;;;;;;;-0.34;56.06;99163.02;219686;1283;142275;-62
2022/01/07 20:39:34;;;;;;;104.10;52.80;;;;;;;-0.44;56.25;99153.59;219911;1282;141220;-63
2022/01/07 20:44:37;;;;;;;76.00;36.30;;;;;;;-0.34;56.87;99142.09;219745;1282;139522;-62
2022/01/07 20:49:40;;;;;;;78.30;38.60;;;;;;;-0.39;56.38;99134.51;219645;1282;139155;-59
2022/01/07 20:54:43;;;;;;;82.40;37.70;;;;;;;-0.52;56.23;99130.89;219712;1283;139963;-61
2022/01/07 20:59:46;;;;;;;86.60;39.40;;;;;;;-0.66;56.18;99138.42;219805;1282;139334;-60
2022/01/07 21:04:49;;;;;;;81.30;37.70;;;;;;;-0.74;56.45;99138.54;219726;1282;138867;-62
2022/01/07 21:09:56;;;;;;;80.50;40.50;;;;;;;-0.84;56.46;99135.55;219946;1282;140086;-63
2022/01/07 21:15:00;;;;;;;89.00;38.40;;;;;;;-0.93;56.65;99136.90;219771;1284;140045;-63
2022/01/07 21:20:03;;;;;;;83.50;38.30;;;;;;;-1.03;56.68;99125.55;219740;1284;139086;-60
2022/01/07 21:25:09;;;;;;;84.60;39.30;;;;;;;-1.09;56.87;99125.80;219668;1284;140116;-63
2022/01/07 21:30:14;;;;;;;81.70;37.70;;;;;;;-1.17;56.82;99131.83;219602;1284;139333;-63
2022/01/07 21:35:17;;;;;;;81.00;37.70;;;;;;;-1.28;56.74;99143.27;219569;1283;139171;-62
2022/01/07 21:40:23;;;;;;;157.30;71.10;;;;;;;0.09;64.56;99141.06;219715;1284;139407;-62
2022/01/07 21:45:27;;;;;;;81.30;37.00;;;;;;;2.26;60.37;99125.79;219815;1284;139637;-61
2022/01/07 21:50:30;;;;;;;84.60;38.80;;;;;;;1.78;55.91;99123.37;219690;1283;139513;-60
2022/01/07 21:55:33;;;;;;;82.50;37.70;;;;;;;1.07;55.01;99119.65;219580;1284;139174;-60
2022/01/07 22:00:36;;;;;;;85.90;39.30;;;;;;;0.45;55.07;99121.84;219801;1283;140182;-59
2022/01/07 22:05:39;;;;;;;92.80;44.60;;;;;;;-0.03;55.42;99127.79;219563;1283;140451;-58
2022/01/07 22:10:42;;;;;;;93.60;42.90;;;;;;;-0.39;55.59;99133.80;219922;1283;140342;-60
2022/01/07 22:15:48;;;;;;;93.40;44.70;;;;;;;-0.72;55.57;99128.77;219799;1283;139650;-60
2022/01/07 22:20:52;;;;;;;100.70;45.20;;;;;;;-1.03;55.87;99122.59;219729;1283;139305;-59
2022/01/07 22:25:55;;;;;;;109.50;48.10;;;;;;;-1.29;56.05;99126.42;219618;1284;139805;-59
2022/01/07 22:30:58;;;;;;;106.40;48.00;;;;;;;-1.50;56.28;99131.54;219938;1283;139928;-59
2022/01/07 22:36:01;;;;;;;106.30;49.10;;;;;;;-1.63;56.56;99139.35;219718;1283;139353;-61
2022/01/07 22:41:04;;;;;;;104.20;50.00;;;;;;;-1.77;56.77;99140.73;219608;1284;139781;-59
2022/01/07 22:46:07;;;;;;;109.60;49.60;;;;;;;-1.86;56.98;99137.35;219900;1284;140144;-60
2022/01/07 22:51:11;;;;;;;118.40;50.30;;;;;;;-1.94;57.16;99129.95;219902;1283;140044;-59
2022/01/07 22:56:15;;;;;;;105.60;47.70;;;;;;;-2.00;57.33;99128.80;219721;1283;140378;-60
2022/01/07 23:01:18;;;;;;;98.70;46.20;;;;;;;-2.05;57.48;99133.17;219836;1284;139496;-60
2022/01/07 23:06:22;;;;;;;107.20;46.20;;;;;;;-2.06;57.56;99126.08;219778;1283;141887;-61
2022/01/07 23:11:25;;;;;;;106.00;46.00;;;;;;;-2.15;57.74;99119.21;219339;1283;139366;-61
2022/01/07 23:16:41;;;;;;;86.80;42.90;;;;;;;-2.23;57.68;99114.59;219783;1282;139666;-60
2022/01/07 23:21:45;;;;;;;105.70;43.80;;;;;;;-2.28;57.83;99110.30;219910;1282;139803;-60